sensor_id;sensor_type;location;lat;lon;timestamp;P1;durP1;ratioP1;P2;durP2;ratioP2
67074;SDS011;53990;50.334;18.640;2023-07-13T00:00:09;5.10;;;3.60;;
67074;SDS011;53990;50.334;18.640;2023-07-13T00:02:56;6.70;;;3.80;;
67074;SDS011;53990;50.334;18.640;2023-07-13T00:05:23;5.40;;;3.60;;
67074;SDS011;53990;50.334;18.640;2023-07-13T00:07:52;6.60;;;3.60;;
67074;SDS011;53990;50.334;18.640;2023-07-13T00:10:19;5.40;;;3.80;;
67074;SDS011;53990;50.334;18.640;2023-07-13T00:12:46;5.50;;;3.30;;
67074;SDS011;53990;50.334;18.640;2023-07-13T00:15:17;6.10;;;3.90;;
67074;SDS011;53990;50.334;18.640;2023-07-13T00:17:52;6.10;;;4.00;;
67074;SDS011;53990;50.334;18.640;2023-07-13T00:20:21;8.20;;;4.20;;
67074;SDS011;53990;50.334;18.640;2023-07-13T00:22:49;5.90;;;3.60;;
67074;SDS011;53990;50.334;18.640;2023-07-13T00:25:16;6.40;;;3.70;;
67074;SDS011;53990;50.334;18.640;2023-07-13T00:27:43;4.90;;;3.60;;
67074;SDS011;53990;50.334;18.640;2023-07-13T00:30:10;6.10;;;3.80;;
67074;SDS011;53990;50.334;18.640;2023-07-13T00:32:38;6.70;;;3.60;;
67074;SDS011;53990;50.334;18.640;2023-07-13T00:35:04;6.60;;;3.70;;
67074;SDS011;53990;50.334;18.640;2023-07-13T00:37:31;6.10;;;3.80;;
67074;SDS011;53990;50.334;18.640;2023-07-13T00:39:58;6.40;;;3.70;;
67074;SDS011;53990;50.334;18.640;2023-07-13T00:42:25;5.50;;;3.80;;
67074;SDS011;53990;50.334;18.640;2023-07-13T00:47:47;5.50;;;3.60;;
67074;SDS011;53990;50.334;18.640;2023-07-13T00:50:15;7.80;;;4.30;;
67074;SDS011;53990;50.334;18.640;2023-07-13T00:52:45;5.20;;;3.90;;
67074;SDS011;53990;50.334;18.640;2023-07-13T00:55:14;7.00;;;4.30;;
67074;SDS011;53990;50.334;18.640;2023-07-13T00:57:42;5.40;;;3.80;;
67074;SDS011;53990;50.334;18.640;2023-07-13T01:00:10;5.30;;;3.60;;
67074;SDS011;53990;50.334;18.640;2023-07-13T01:02:42;4.90;;;3.70;;
67074;SDS011;53990;50.334;18.640;2023-07-13T01:05:17;8.10;;;4.20;;
67074;SDS011;53990;50.334;18.640;2023-07-13T01:07:45;6.50;;;4.20;;
67074;SDS011;53990;50.334;18.640;2023-07-13T01:10:13;5.80;;;4.10;;
67074;SDS011;53990;50.334;18.640;2023-07-13T01:12:40;7.30;;;5.20;;
67074;SDS011;53990;50.334;18.640;2023-07-13T01:15:39;6.50;;;4.30;;
67074;SDS011;53990;50.334;18.640;2023-07-13T01:18:09;7.40;;;4.90;;
67074;SDS011;53990;50.334;18.640;2023-07-13T01:20:38;7.00;;;4.80;;
67074;SDS011;53990;50.334;18.640;2023-07-13T01:23:07;6.40;;;4.60;;
67074;SDS011;53990;50.334;18.640;2023-07-13T01:25:36;7.00;;;5.00;;
67074;SDS011;53990;50.334;18.640;2023-07-13T01:28:07;8.80;;;4.40;;
67074;SDS011;53990;50.334;18.640;2023-07-13T01:30:39;7.00;;;4.00;;
67074;SDS011;53990;50.334;18.640;2023-07-13T01:33:07;16.10;;;3.90;;
67074;SDS011;53990;50.334;18.640;2023-07-13T01:35:34;5.10;;;3.30;;
67074;SDS011;53990;50.334;18.640;2023-07-13T01:38:00;7.30;;;3.80;;
67074;SDS011;53990;50.334;18.640;2023-07-13T01:40:29;6.30;;;4.10;;
67074;SDS011;53990;50.334;18.640;2023-07-13T01:42:58;10.10;;;4.60;;
67074;SDS011;53990;50.334;18.640;2023-07-13T01:45:24;9.90;;;4.60;;
67074;SDS011;53990;50.334;18.640;2023-07-13T01:47:51;10.10;;;4.40;;
67074;SDS011;53990;50.334;18.640;2023-07-13T01:50:18;8.40;;;4.20;;
67074;SDS011;53990;50.334;18.640;2023-07-13T01:52:44;7.50;;;4.10;;
67074;SDS011;53990;50.334;18.640;2023-07-13T01:55:11;7.90;;;4.30;;
67074;SDS011;53990;50.334;18.640;2023-07-13T01:57:38;6.60;;;4.80;;
67074;SDS011;53990;50.334;18.640;2023-07-13T02:00:06;6.50;;;4.10;;
67074;SDS011;53990;50.334;18.640;2023-07-13T02:02:33;7.40;;;4.70;;
67074;SDS011;53990;50.334;18.640;2023-07-13T02:05:00;7.20;;;4.30;;
67074;SDS011;53990;50.334;18.640;2023-07-13T02:07:27;9.70;;;4.80;;
67074;SDS011;53990;50.334;18.640;2023-07-13T02:09:53;9.90;;;4.80;;
67074;SDS011;53990;50.334;18.640;2023-07-13T02:12:20;7.10;;;4.70;;
67074;SDS011;53990;50.334;18.640;2023-07-13T02:14:47;11.00;;;5.40;;
67074;SDS011;53990;50.334;18.640;2023-07-13T02:17:14;8.80;;;5.40;;
67074;SDS011;53990;50.334;18.640;2023-07-13T02:19:41;7.60;;;4.90;;
67074;SDS011;53990;50.334;18.640;2023-07-13T02:22:07;7.70;;;4.30;;
67074;SDS011;53990;50.334;18.640;2023-07-13T02:24:34;10.70;;;5.10;;
67074;SDS011;53990;50.334;18.640;2023-07-13T02:27:01;7.70;;;4.20;;
67074;SDS011;53990;50.334;18.640;2023-07-13T02:29:27;9.30;;;4.80;;
67074;SDS011;53990;50.334;18.640;2023-07-13T02:31:54;10.20;;;6.30;;
67074;SDS011;53990;50.334;18.640;2023-07-13T02:34:21;6.80;;;4.90;;
67074;SDS011;53990;50.334;18.640;2023-07-13T02:36:47;6.30;;;4.80;;
67074;SDS011;53990;50.334;18.640;2023-07-13T02:39:14;7.70;;;4.70;;
67074;SDS011;53990;50.334;18.640;2023-07-13T02:41:41;9.70;;;5.20;;
67074;SDS011;53990;50.334;18.640;2023-07-13T02:44:08;9.40;;;5.00;;
67074;SDS011;53990;50.334;18.640;2023-07-13T02:46:36;7.20;;;4.60;;
67074;SDS011;53990;50.334;18.640;2023-07-13T02:49:04;7.20;;;4.80;;
67074;SDS011;53990;50.334;18.640;2023-07-13T02:51:31;7.50;;;4.60;;
67074;SDS011;53990;50.334;18.640;2023-07-13T02:54:01;6.60;;;5.20;;
67074;SDS011;53990;50.334;18.640;2023-07-13T02:56:30;7.50;;;5.30;;
67074;SDS011;53990;50.334;18.640;2023-07-13T02:58:57;10.80;;;5.70;;
67074;SDS011;53990;50.334;18.640;2023-07-13T03:01:24;7.60;;;5.60;;
67074;SDS011;53990;50.334;18.640;2023-07-13T03:03:52;7.40;;;5.30;;
67074;SDS011;53990;50.334;18.640;2023-07-13T03:06:19;8.70;;;5.00;;
67074;SDS011;53990;50.334;18.640;2023-07-13T03:08:46;10.40;;;5.10;;
67074;SDS011;53990;50.334;18.640;2023-07-13T03:11:15;8.40;;;5.60;;
67074;SDS011;53990;50.334;18.640;2023-07-13T03:13:42;7.80;;;5.70;;
67074;SDS011;53990;50.334;18.640;2023-07-13T03:16:10;8.20;;;5.60;;
67074;SDS011;53990;50.334;18.640;2023-07-13T03:18:38;9.70;;;6.10;;
67074;SDS011;53990;50.334;18.640;2023-07-13T03:21:05;12.50;;;7.40;;
67074;SDS011;53990;50.334;18.640;2023-07-13T03:23:32;8.10;;;6.50;;
67074;SDS011;53990;50.334;18.640;2023-07-13T03:26:06;8.70;;;6.80;;
67074;SDS011;53990;50.334;18.640;2023-07-13T03:28:33;8.10;;;6.40;;
67074;SDS011;53990;50.334;18.640;2023-07-13T03:31:09;9.70;;;6.60;;
67074;SDS011;53990;50.334;18.640;2023-07-13T03:33:36;8.50;;;6.70;;
67074;SDS011;53990;50.334;18.640;2023-07-13T03:36:05;10.70;;;5.90;;
67074;SDS011;53990;50.334;18.640;2023-07-13T03:38:32;9.30;;;6.40;;
67074;SDS011;53990;50.334;18.640;2023-07-13T03:40:59;11.20;;;7.00;;
67074;SDS011;53990;50.334;18.640;2023-07-13T03:43:26;12.40;;;7.50;;
67074;SDS011;53990;50.334;18.640;2023-07-13T03:45:53;11.40;;;7.70;;
67074;SDS011;53990;50.334;18.640;2023-07-13T03:48:19;11.20;;;7.00;;
67074;SDS011;53990;50.334;18.640;2023-07-13T03:50:47;13.00;;;7.50;;
67074;SDS011;53990;50.334;18.640;2023-07-13T03:53:15;9.40;;;6.60;;
67074;SDS011;53990;50.334;18.640;2023-07-13T03:55:42;8.50;;;6.50;;
67074;SDS011;53990;50.334;18.640;2023-07-13T03:58:33;10.30;;;6.90;;
67074;SDS011;53990;50.334;18.640;2023-07-13T04:01:00;9.60;;;7.00;;
67074;SDS011;53990;50.334;18.640;2023-07-13T04:03:27;8.80;;;7.20;;
67074;SDS011;53990;50.334;18.640;2023-07-13T04:05:58;11.40;;;6.80;;
67074;SDS011;53990;50.334;18.640;2023-07-13T04:08:28;8.20;;;6.30;;
67074;SDS011;53990;50.334;18.640;2023-07-13T04:10:55;11.20;;;6.60;;
67074;SDS011;53990;50.334;18.640;2023-07-13T04:13:22;11.10;;;7.00;;
67074;SDS011;53990;50.334;18.640;2023-07-13T04:15:49;9.90;;;6.70;;
67074;SDS011;53990;50.334;18.640;2023-07-13T04:18:17;8.30;;;7.00;;
67074;SDS011;53990;50.334;18.640;2023-07-13T04:20:47;8.60;;;7.00;;
67074;SDS011;53990;50.334;18.640;2023-07-13T04:23:13;11.70;;;7.60;;
67074;SDS011;53990;50.334;18.640;2023-07-13T04:25:44;10.30;;;7.70;;
67074;SDS011;53990;50.334;18.640;2023-07-13T04:28:11;10.50;;;7.30;;
67074;SDS011;53990;50.334;18.640;2023-07-13T04:30:37;10.90;;;7.10;;
67074;SDS011;53990;50.334;18.640;2023-07-13T04:33:04;10.50;;;6.60;;
67074;SDS011;53990;50.334;18.640;2023-07-13T04:35:31;9.30;;;6.90;;
67074;SDS011;53990;50.334;18.640;2023-07-13T04:37:58;10.80;;;6.70;;
67074;SDS011;53990;50.334;18.640;2023-07-13T04:40:27;12.60;;;8.10;;
67074;SDS011;53990;50.334;18.640;2023-07-13T04:42:54;9.60;;;7.90;;
67074;SDS011;53990;50.334;18.640;2023-07-13T04:45:21;11.40;;;7.30;;
67074;SDS011;53990;50.334;18.640;2023-07-13T04:47:50;10.40;;;7.60;;
67074;SDS011;53990;50.334;18.640;2023-07-13T04:50:17;12.50;;;8.30;;
67074;SDS011;53990;50.334;18.640;2023-07-13T04:52:47;11.50;;;9.00;;
67074;SDS011;53990;50.334;18.640;2023-07-13T04:55:14;11.10;;;8.80;;
67074;SDS011;53990;50.334;18.640;2023-07-13T04:57:41;10.50;;;7.60;;
67074;SDS011;53990;50.334;18.640;2023-07-13T05:00:08;12.40;;;8.50;;
67074;SDS011;53990;50.334;18.640;2023-07-13T05:02:37;11.70;;;8.40;;
67074;SDS011;53990;50.334;18.640;2023-07-13T05:05:06;9.90;;;8.30;;
67074;SDS011;53990;50.334;18.640;2023-07-13T05:07:32;11.30;;;9.10;;
67074;SDS011;53990;50.334;18.640;2023-07-13T05:09:59;13.10;;;8.10;;
67074;SDS011;53990;50.334;18.640;2023-07-13T05:12:27;12.20;;;7.80;;
67074;SDS011;53990;50.334;18.640;2023-07-13T05:14:53;10.80;;;8.20;;
67074;SDS011;53990;50.334;18.640;2023-07-13T05:17:20;11.70;;;7.80;;
67074;SDS011;53990;50.334;18.640;2023-07-13T05:19:47;9.70;;;7.30;;
67074;SDS011;53990;50.334;18.640;2023-07-13T05:22:14;12.30;;;7.40;;
67074;SDS011;53990;50.334;18.640;2023-07-13T05:24:40;10.10;;;7.20;;
67074;SDS011;53990;50.334;18.640;2023-07-13T05:27:07;9.70;;;7.00;;
67074;SDS011;53990;50.334;18.640;2023-07-13T05:29:34;10.40;;;7.30;;
67074;SDS011;53990;50.334;18.640;2023-07-13T05:32:00;8.10;;;6.40;;
67074;SDS011;53990;50.334;18.640;2023-07-13T05:34:27;11.50;;;7.80;;
67074;SDS011;53990;50.334;18.640;2023-07-13T05:36:54;8.90;;;6.40;;
67074;SDS011;53990;50.334;18.640;2023-07-13T05:39:21;9.30;;;6.20;;
67074;SDS011;53990;50.334;18.640;2023-07-13T05:41:48;7.40;;;6.10;;
67074;SDS011;53990;50.334;18.640;2023-07-13T05:44:14;8.00;;;6.10;;
67074;SDS011;53990;50.334;18.640;2023-07-13T05:46:41;7.50;;;6.00;;
67074;SDS011;53990;50.334;18.640;2023-07-13T05:49:08;8.60;;;6.10;;
67074;SDS011;53990;50.334;18.640;2023-07-13T05:51:34;8.80;;;6.20;;
67074;SDS011;53990;50.334;18.640;2023-07-13T05:54:01;7.40;;;5.60;;
67074;SDS011;53990;50.334;18.640;2023-07-13T05:56:28;8.50;;;6.10;;
67074;SDS011;53990;50.334;18.640;2023-07-13T05:58:56;10.80;;;7.60;;
67074;SDS011;53990;50.334;18.640;2023-07-13T06:01:23;13.30;;;6.30;;
67074;SDS011;53990;50.334;18.640;2023-07-13T06:03:50;7.40;;;6.10;;
67074;SDS011;53990;50.334;18.640;2023-07-13T06:06:17;8.00;;;6.00;;
67074;SDS011;53990;50.334;18.640;2023-07-13T06:08:43;7.60;;;5.90;;
67074;SDS011;53990;50.334;18.640;2023-07-13T06:11:17;8.60;;;6.20;;
67074;SDS011;53990;50.334;18.640;2023-07-13T06:13:44;8.40;;;6.00;;
67074;SDS011;53990;50.334;18.640;2023-07-13T06:16:12;10.50;;;6.00;;
67074;SDS011;53990;50.334;18.640;2023-07-13T06:18:39;9.10;;;6.50;;
67074;SDS011;53990;50.334;18.640;2023-07-13T06:21:08;7.90;;;6.00;;
67074;SDS011;53990;50.334;18.640;2023-07-13T06:23:36;6.80;;;5.60;;
67074;SDS011;53990;50.334;18.640;2023-07-13T06:26:04;7.40;;;5.60;;
67074;SDS011;53990;50.334;18.640;2023-07-13T06:28:32;7.80;;;5.60;;
67074;SDS011;53990;50.334;18.640;2023-07-13T06:30:59;9.10;;;5.80;;
67074;SDS011;53990;50.334;18.640;2023-07-13T06:33:26;7.70;;;5.90;;
67074;SDS011;53990;50.334;18.640;2023-07-13T06:35:53;8.20;;;6.00;;
67074;SDS011;53990;50.334;18.640;2023-07-13T06:38:21;8.10;;;5.90;;
67074;SDS011;53990;50.334;18.640;2023-07-13T06:40:48;9.70;;;6.00;;
67074;SDS011;53990;50.334;18.640;2023-07-13T06:43:15;11.40;;;6.20;;
67074;SDS011;53990;50.334;18.640;2023-07-13T06:45:44;11.40;;;6.50;;
67074;SDS011;53990;50.334;18.640;2023-07-13T06:48:17;9.50;;;5.70;;
67074;SDS011;53990;50.334;18.640;2023-07-13T06:50:44;11.60;;;6.10;;
67074;SDS011;53990;50.334;18.640;2023-07-13T06:53:12;10.30;;;6.70;;
67074;SDS011;53990;50.334;18.640;2023-07-13T06:55:39;8.70;;;5.60;;
67074;SDS011;53990;50.334;18.640;2023-07-13T06:58:06;8.90;;;6.00;;
67074;SDS011;53990;50.334;18.640;2023-07-13T07:00:33;7.90;;;6.30;;
67074;SDS011;53990;50.334;18.640;2023-07-13T07:03:00;9.80;;;7.90;;
67074;SDS011;53990;50.334;18.640;2023-07-13T07:05:27;9.80;;;7.60;;
67074;SDS011;53990;50.334;18.640;2023-07-13T07:07:55;11.50;;;7.30;;
67074;SDS011;53990;50.334;18.640;2023-07-13T07:10:22;12.80;;;7.10;;
67074;SDS011;53990;50.334;18.640;2023-07-13T07:12:49;12.20;;;7.60;;
67074;SDS011;53990;50.334;18.640;2023-07-13T07:15:16;14.00;;;8.10;;
67074;SDS011;53990;50.334;18.640;2023-07-13T07:17:43;10.30;;;8.30;;
67074;SDS011;53990;50.334;18.640;2023-07-13T07:20:10;11.90;;;8.80;;
67074;SDS011;53990;50.334;18.640;2023-07-13T07:22:37;12.30;;;9.80;;
67074;SDS011;53990;50.334;18.640;2023-07-13T07:25:04;14.70;;;11.00;;
67074;SDS011;53990;50.334;18.640;2023-07-13T07:27:32;15.60;;;11.60;;
67074;SDS011;53990;50.334;18.640;2023-07-13T07:29:59;14.20;;;11.00;;
67074;SDS011;53990;50.334;18.640;2023-07-13T07:32:26;13.50;;;9.80;;
67074;SDS011;53990;50.334;18.640;2023-07-13T07:34:52;14.00;;;8.70;;
67074;SDS011;53990;50.334;18.640;2023-07-13T07:37:19;11.70;;;8.90;;
67074;SDS011;53990;50.334;18.640;2023-07-13T07:39:46;11.90;;;8.20;;
67074;SDS011;53990;50.334;18.640;2023-07-13T07:42:12;11.20;;;8.40;;
67074;SDS011;53990;50.334;18.640;2023-07-13T07:44:40;10.10;;;8.10;;
67074;SDS011;53990;50.334;18.640;2023-07-13T07:47:08;9.40;;;7.60;;
67074;SDS011;53990;50.334;18.640;2023-07-13T07:49:36;15.80;;;10.90;;
67074;SDS011;53990;50.334;18.640;2023-07-13T07:52:03;13.60;;;8.80;;
67074;SDS011;53990;50.334;18.640;2023-07-13T07:54:30;13.10;;;8.20;;
67074;SDS011;53990;50.334;18.640;2023-07-13T07:56:56;10.20;;;8.00;;
67074;SDS011;53990;50.334;18.640;2023-07-13T07:59:23;8.90;;;7.40;;
67074;SDS011;53990;50.334;18.640;2023-07-13T08:01:50;9.10;;;7.40;;
67074;SDS011;53990;50.334;18.640;2023-07-13T08:04:17;12.40;;;7.40;;
67074;SDS011;53990;50.334;18.640;2023-07-13T08:06:43;9.40;;;7.10;;
67074;SDS011;53990;50.334;18.640;2023-07-13T08:09:10;11.10;;;7.50;;
67074;SDS011;53990;50.334;18.640;2023-07-13T08:11:37;12.10;;;8.00;;
67074;SDS011;53990;50.334;18.640;2023-07-13T08:14:03;11.30;;;7.50;;
67074;SDS011;53990;50.334;18.640;2023-07-13T08:16:30;11.50;;;7.90;;
67074;SDS011;53990;50.334;18.640;2023-07-13T08:18:59;10.00;;;7.50;;
67074;SDS011;53990;50.334;18.640;2023-07-13T08:21:26;10.70;;;7.70;;
67074;SDS011;53990;50.334;18.640;2023-07-13T08:23:53;11.20;;;8.30;;
67074;SDS011;53990;50.334;18.640;2023-07-13T08:26:19;9.10;;;8.20;;
67074;SDS011;53990;50.334;18.640;2023-07-13T08:28:46;10.30;;;8.00;;
67074;SDS011;53990;50.334;18.640;2023-07-13T08:31:13;12.50;;;9.10;;
67074;SDS011;53990;50.334;18.640;2023-07-13T08:33:40;11.70;;;8.80;;
67074;SDS011;53990;50.334;18.640;2023-07-13T08:36:07;12.50;;;9.80;;
67074;SDS011;53990;50.334;18.640;2023-07-13T08:38:34;13.50;;;10.50;;
67074;SDS011;53990;50.334;18.640;2023-07-13T08:41:09;12.10;;;9.60;;
67074;SDS011;53990;50.334;18.640;2023-07-13T08:46:40;13.90;;;9.90;;
67074;SDS011;53990;50.334;18.640;2023-07-13T08:49:11;11.30;;;9.00;;
67074;SDS011;53990;50.334;18.640;2023-07-13T08:52:08;11.90;;;8.90;;
67074;SDS011;53990;50.334;18.640;2023-07-13T08:54:44;14.00;;;9.40;;
67074;SDS011;53990;50.334;18.640;2023-07-13T08:57:15;11.30;;;9.00;;
67074;SDS011;53990;50.334;18.640;2023-07-13T08:59:42;13.10;;;9.40;;
67074;SDS011;53990;50.334;18.640;2023-07-13T09:02:32;14.10;;;10.20;;
67074;SDS011;53990;50.334;18.640;2023-07-13T09:05:10;12.70;;;8.50;;
67074;SDS011;53990;50.334;18.640;2023-07-13T09:13:07;9.10;;;7.00;;
67074;SDS011;53990;50.334;18.640;2023-07-13T09:15:47;9.70;;;7.20;;
67074;SDS011;53990;50.334;18.640;2023-07-13T09:21:00;8.70;;;5.20;;
67074;SDS011;53990;50.334;18.640;2023-07-13T09:23:30;9.00;;;4.20;;
67074;SDS011;53990;50.334;18.640;2023-07-13T09:26:09;5.40;;;3.60;;
67074;SDS011;53990;50.334;18.640;2023-07-13T09:28:45;5.70;;;3.70;;
67074;SDS011;53990;50.334;18.640;2023-07-13T09:31:38;6.40;;;3.50;;
67074;SDS011;53990;50.334;18.640;2023-07-13T09:34:10;6.80;;;3.80;;
67074;SDS011;53990;50.334;18.640;2023-07-13T09:36:37;5.80;;;3.80;;
67074;SDS011;53990;50.334;18.640;2023-07-13T09:44:13;7.20;;;3.70;;
67074;SDS011;53990;50.334;18.640;2023-07-13T09:46:46;7.20;;;3.90;;
67074;SDS011;53990;50.334;18.640;2023-07-13T09:49:13;8.90;;;4.90;;
67074;SDS011;53990;50.334;18.640;2023-07-13T09:51:43;5.80;;;3.80;;
67074;SDS011;53990;50.334;18.640;2023-07-13T09:54:21;6.90;;;3.80;;
67074;SDS011;53990;50.334;18.640;2023-07-13T09:56:55;7.40;;;3.50;;
67074;SDS011;53990;50.334;18.640;2023-07-13T09:59:27;7.00;;;3.90;;
67074;SDS011;53990;50.334;18.640;2023-07-13T10:01:53;8.70;;;4.60;;
67074;SDS011;53990;50.334;18.640;2023-07-13T10:04:28;5.60;;;3.40;;
67074;SDS011;53990;50.334;18.640;2023-07-13T10:07:11;5.70;;;3.70;;
67074;SDS011;53990;50.334;18.640;2023-07-13T10:09:39;5.10;;;3.10;;
67074;SDS011;53990;50.334;18.640;2023-07-13T10:12:14;6.40;;;3.20;;
67074;SDS011;53990;50.334;18.640;2023-07-13T10:14:41;6.40;;;3.80;;
67074;SDS011;53990;50.334;18.640;2023-07-13T10:17:10;6.60;;;3.40;;
67074;SDS011;53990;50.334;18.640;2023-07-13T10:19:39;7.10;;;3.40;;
67074;SDS011;53990;50.334;18.640;2023-07-13T10:22:15;6.80;;;3.60;;
67074;SDS011;53990;50.334;18.640;2023-07-13T10:24:44;5.50;;;3.40;;
67074;SDS011;53990;50.334;18.640;2023-07-13T10:27:20;5.30;;;3.20;;
67074;SDS011;53990;50.334;18.640;2023-07-13T10:29:57;8.20;;;3.20;;
67074;SDS011;53990;50.334;18.640;2023-07-13T10:32:26;5.40;;;3.60;;
67074;SDS011;53990;50.334;18.640;2023-07-13T10:34:53;4.80;;;3.10;;
67074;SDS011;53990;50.334;18.640;2023-07-13T10:37:27;7.70;;;4.10;;
67074;SDS011;53990;50.334;18.640;2023-07-13T10:39:56;6.50;;;3.60;;
67074;SDS011;53990;50.334;18.640;2023-07-13T10:42:50;4.20;;;3.00;;
67074;SDS011;53990;50.334;18.640;2023-07-13T10:45:21;6.00;;;3.20;;
67074;SDS011;53990;50.334;18.640;2023-07-13T10:47:50;7.00;;;3.80;;
67074;SDS011;53990;50.334;18.640;2023-07-13T10:50:21;5.50;;;3.20;;
67074;SDS011;53990;50.334;18.640;2023-07-13T10:52:51;6.00;;;3.40;;
67074;SDS011;53990;50.334;18.640;2023-07-13T10:58:21;4.50;;;2.60;;
67074;SDS011;53990;50.334;18.640;2023-07-13T11:01:14;6.70;;;3.60;;
67074;SDS011;53990;50.334;18.640;2023-07-13T11:06:37;6.60;;;3.30;;
67074;SDS011;53990;50.334;18.640;2023-07-13T11:09:25;5.60;;;3.40;;
67074;SDS011;53990;50.334;18.640;2023-07-13T11:11:58;8.10;;;3.30;;
67074;SDS011;53990;50.334;18.640;2023-07-13T11:14:29;4.40;;;2.80;;
67074;SDS011;53990;50.334;18.640;2023-07-13T11:16:56;6.20;;;3.30;;
67074;SDS011;53990;50.334;18.640;2023-07-13T11:19:26;5.60;;;3.20;;
67074;SDS011;53990;50.334;18.640;2023-07-13T11:24:59;4.40;;;2.80;;
67074;SDS011;53990;50.334;18.640;2023-07-13T11:30:23;4.80;;;2.80;;
67074;SDS011;53990;50.334;18.640;2023-07-13T11:33:02;4.70;;;2.90;;
67074;SDS011;53990;50.334;18.640;2023-07-13T11:35:37;4.30;;;2.90;;
67074;SDS011;53990;50.334;18.640;2023-07-13T11:38:22;4.20;;;3.00;;
67074;SDS011;53990;50.334;18.640;2023-07-13T11:40:53;5.50;;;3.30;;
67074;SDS011;53990;50.334;18.640;2023-07-13T11:43:21;4.90;;;3.10;;
67074;SDS011;53990;50.334;18.640;2023-07-13T11:45:50;4.90;;;3.10;;
67074;SDS011;53990;50.334;18.640;2023-07-13T11:48:27;6.00;;;3.20;;
67074;SDS011;53990;50.334;18.640;2023-07-13T11:51:01;7.40;;;3.30;;
67074;SDS011;53990;50.334;18.640;2023-07-13T11:53:36;5.70;;;3.40;;
67074;SDS011;53990;50.334;18.640;2023-07-13T11:56:05;5.40;;;3.50;;
67074;SDS011;53990;50.334;18.640;2023-07-13T11:58:32;4.80;;;3.30;;
67074;SDS011;53990;50.334;18.640;2023-07-13T12:01:01;6.20;;;3.60;;
67074;SDS011;53990;50.334;18.640;2023-07-13T12:03:32;6.20;;;3.60;;
67074;SDS011;53990;50.334;18.640;2023-07-13T12:06:03;5.90;;;3.70;;
67074;SDS011;53990;50.334;18.640;2023-07-13T12:08:38;3.80;;;2.80;;
67074;SDS011;53990;50.334;18.640;2023-07-13T12:11:15;5.30;;;3.50;;
67074;SDS011;53990;50.334;18.640;2023-07-13T12:13:43;5.40;;;3.00;;
67074;SDS011;53990;50.334;18.640;2023-07-13T12:16:15;4.00;;;2.70;;
67074;SDS011;53990;50.334;18.640;2023-07-13T12:18:43;5.40;;;3.30;;
67074;SDS011;53990;50.334;18.640;2023-07-13T12:21:14;5.50;;;3.60;;
67074;SDS011;53990;50.334;18.640;2023-07-13T12:23:44;7.70;;;3.80;;
67074;SDS011;53990;50.334;18.640;2023-07-13T12:26:11;5.60;;;3.20;;
67074;SDS011;53990;50.334;18.640;2023-07-13T12:28:45;6.00;;;3.00;;
67074;SDS011;53990;50.334;18.640;2023-07-13T12:31:42;3.90;;;2.80;;
67074;SDS011;53990;50.334;18.640;2023-07-13T12:34:21;4.50;;;2.90;;
67074;SDS011;53990;50.334;18.640;2023-07-13T12:37:02;5.00;;;2.80;;
67074;SDS011;53990;50.334;18.640;2023-07-13T12:39:36;3.90;;;2.60;;
67074;SDS011;53990;50.334;18.640;2023-07-13T12:45:23;5.60;;;3.00;;
67074;SDS011;53990;50.334;18.640;2023-07-13T12:47:58;4.80;;;2.90;;
67074;SDS011;53990;50.334;18.640;2023-07-13T12:50:33;4.00;;;2.30;;
67074;SDS011;53990;50.334;18.640;2023-07-13T12:53:03;4.00;;;2.80;;
67074;SDS011;53990;50.334;18.640;2023-07-13T12:56:02;4.00;;;2.40;;
67074;SDS011;53990;50.334;18.640;2023-07-13T12:58:40;5.00;;;3.20;;
67074;SDS011;53990;50.334;18.640;2023-07-13T13:01:10;4.20;;;2.50;;
67074;SDS011;53990;50.334;18.640;2023-07-13T13:03:45;4.50;;;2.50;;
67074;SDS011;53990;50.334;18.640;2023-07-13T13:08:41;4.00;;;2.30;;
67074;SDS011;53990;50.334;18.640;2023-07-13T13:11:10;5.10;;;3.00;;
67074;SDS011;53990;50.334;18.640;2023-07-13T13:13:36;4.40;;;2.80;;
67074;SDS011;53990;50.334;18.640;2023-07-13T13:18:56;4.40;;;2.80;;
67074;SDS011;53990;50.334;18.640;2023-07-13T13:21:26;5.20;;;3.20;;
67074;SDS011;53990;50.334;18.640;2023-07-13T13:23:53;5.40;;;3.20;;
67074;SDS011;53990;50.334;18.640;2023-07-13T13:26:22;7.90;;;3.70;;
67074;SDS011;53990;50.334;18.640;2023-07-13T13:28:48;4.80;;;3.30;;
67074;SDS011;53990;50.334;18.640;2023-07-13T13:31:15;5.40;;;3.10;;
67074;SDS011;53990;50.334;18.640;2023-07-13T13:33:44;6.30;;;3.60;;
67074;SDS011;53990;50.334;18.640;2023-07-13T13:36:16;6.10;;;3.90;;
67074;SDS011;53990;50.334;18.640;2023-07-13T13:38:43;4.50;;;3.70;;
67074;SDS011;53990;50.334;18.640;2023-07-13T13:41:12;5.50;;;3.80;;
67074;SDS011;53990;50.334;18.640;2023-07-13T13:43:41;4.60;;;3.10;;
67074;SDS011;53990;50.334;18.640;2023-07-13T13:46:15;4.80;;;3.40;;
67074;SDS011;53990;50.334;18.640;2023-07-13T13:48:43;6.20;;;4.30;;
67074;SDS011;53990;50.334;18.640;2023-07-13T13:51:28;5.00;;;3.60;;
67074;SDS011;53990;50.334;18.640;2023-07-13T13:53:56;5.10;;;3.80;;
67074;SDS011;53990;50.334;18.640;2023-07-13T13:56:22;5.50;;;4.20;;
67074;SDS011;53990;50.334;18.640;2023-07-13T13:58:49;5.70;;;4.30;;
67074;SDS011;53990;50.334;18.640;2023-07-13T14:01:20;5.90;;;4.90;;
67074;SDS011;53990;50.334;18.640;2023-07-13T14:03:48;5.30;;;4.20;;
67074;SDS011;53990;50.334;18.640;2023-07-13T14:06:18;5.10;;;4.60;;
67074;SDS011;53990;50.334;18.640;2023-07-13T14:08:44;5.50;;;4.00;;
67074;SDS011;53990;50.334;18.640;2023-07-13T14:11:14;6.00;;;4.50;;
67074;SDS011;53990;50.334;18.640;2023-07-13T14:13:48;5.50;;;4.50;;
67074;SDS011;53990;50.334;18.640;2023-07-13T14:16:18;6.70;;;4.50;;
67074;SDS011;53990;50.334;18.640;2023-07-13T14:18:47;7.20;;;5.30;;
67074;SDS011;53990;50.334;18.640;2023-07-13T14:21:16;5.90;;;4.80;;
67074;SDS011;53990;50.334;18.640;2023-07-13T14:23:45;5.30;;;4.30;;
67074;SDS011;53990;50.334;18.640;2023-07-13T14:26:15;6.40;;;4.50;;
67074;SDS011;53990;50.334;18.640;2023-07-13T14:28:44;6.10;;;4.00;;
67074;SDS011;53990;50.334;18.640;2023-07-13T14:31:13;8.70;;;3.80;;
67074;SDS011;53990;50.334;18.640;2023-07-13T14:33:40;5.60;;;3.70;;
67074;SDS011;53990;50.334;18.640;2023-07-13T14:38:53;5.90;;;4.80;;
67074;SDS011;53990;50.334;18.640;2023-07-13T14:41:20;8.80;;;4.90;;
67074;SDS011;53990;50.334;18.640;2023-07-13T14:43:48;5.40;;;3.70;;
67074;SDS011;53990;50.334;18.640;2023-07-13T14:46:32;5.30;;;3.60;;
67074;SDS011;53990;50.334;18.640;2023-07-13T14:51:36;5.00;;;4.00;;
67074;SDS011;53990;50.334;18.640;2023-07-13T14:54:05;6.10;;;4.30;;
67074;SDS011;53990;50.334;18.640;2023-07-13T14:56:32;5.40;;;3.40;;
67074;SDS011;53990;50.334;18.640;2023-07-13T14:58:58;5.00;;;3.80;;
67074;SDS011;53990;50.334;18.640;2023-07-13T15:01:26;4.30;;;3.20;;
67074;SDS011;53990;50.334;18.640;2023-07-13T15:03:53;5.90;;;3.20;;
67074;SDS011;53990;50.334;18.640;2023-07-13T15:06:20;4.80;;;2.80;;
67074;SDS011;53990;50.334;18.640;2023-07-13T15:08:47;4.80;;;3.10;;
67074;SDS011;53990;50.334;18.640;2023-07-13T15:11:15;4.90;;;2.50;;
67074;SDS011;53990;50.334;18.640;2023-07-13T15:13:43;3.40;;;2.50;;
67074;SDS011;53990;50.334;18.640;2023-07-13T15:16:21;5.20;;;1.80;;
67074;SDS011;53990;50.334;18.640;2023-07-13T15:18:49;2.80;;;2.00;;
67074;SDS011;53990;50.334;18.640;2023-07-13T15:21:23;2.70;;;1.80;;
67074;SDS011;53990;50.334;18.640;2023-07-13T15:23:51;4.40;;;1.90;;
67074;SDS011;53990;50.334;18.640;2023-07-13T15:26:18;2.90;;;2.10;;
67074;SDS011;53990;50.334;18.640;2023-07-13T15:28:46;4.50;;;2.40;;